Time;durP1;ratioP1;P1;durP2;ratioP2;P2;SDS_P1;SDS_P2;PMS_P1;PMS_P2;Temp;Humidity;BMP_temperature;BMP_pressure;BME280_temperature;BME280_humidity;BME280_pressure;Samples;Min_cycle;Max_cycle;Signal;HPM_P1;HPM_P2
2023/10/16 00:01:15;;;;;;;9.60;5.60;;;;;;;4.78;100.00;102387.84;4997198;28;20422;-51
2023/10/16 00:03:41;;;;;;;12.50;6.78;;;;;;;4.77;100.00;102383.50;5002435;28;20022;-48
2023/10/16 00:06:07;;;;;;;9.80;6.70;;;;;;;4.79;100.00;102379.91;4998272;28;20110;-49
2023/10/16 00:08:34;;;;;;;12.63;6.97;;;;;;;4.77;100.00;102371.19;4999538;28;20045;-51
2023/10/16 00:11:03;;;;;;;9.50;5.70;;;;;;;4.80;100.00;102375.50;4996877;28;20483;-50
2023/10/16 00:13:28;;;;;;;10.45;5.82;;;;;;;4.80;100.00;102370.25;4994577;28;20031;-49
2023/10/16 00:16:03;;;;;;;7.72;5.38;;;;;;;4.84;100.00;102371.88;5015672;28;20034;-49
2023/10/16 00:18:35;;;;;;;9.88;6.07;;;;;;;4.81;100.00;102372.84;5000430;28;20114;-49
2023/10/16 00:21:04;;;;;;;8.70;6.00;;;;;;;4.82;100.00;102366.66;5001260;28;20031;-49
2023/10/16 00:23:30;;;;;;;15.73;5.93;;;;;;;4.85;100.00;102368.34;5004009;28;20490;-53
2023/10/16 00:25:58;;;;;;;8.75;6.40;;;;;;;4.88;100.00;102378.81;4998019;28;20050;-53
2023/10/16 00:28:23;;;;;;;7.15;5.97;;;;;;;4.88;100.00;102373.53;4996458;28;20105;-53
2023/10/16 00:30:49;;;;;;;9.60;6.55;;;;;;;4.90;100.00;102369.09;4995289;28;20452;-52
2023/10/16 00:33:16;;;;;;;8.65;6.07;;;;;;;4.89;100.00;102367.34;4997833;28;20026;-53
2023/10/16 00:35:41;;;;;;;10.05;6.32;;;;;;;4.93;100.00;102371.63;4993863;28;20022;-51
2023/10/16 00:38:19;;;;;;;11.70;6.45;;;;;;;4.95;100.00;102374.22;4999907;28;20037;-51
2023/10/16 00:40:51;;;;;;;8.15;6.13;;;;;;;4.98;100.00;102369.72;4996715;28;20061;-52
2023/10/16 00:43:20;;;;;;;7.72;6.03;;;;;;;5.01;100.00;102368.75;4997384;28;20043;-52
2023/10/16 00:45:50;;;;;;;;;;;;;;;5.09;100.00;102376.44;5006400;28;20506;-50
2023/10/16 00:48:19;;;;;;;8.40;5.45;;;;;;;5.07;100.00;102373.84;4996336;28;20295;-49
2023/10/16 00:50:48;;;;;;;6.95;6.05;;;;;;;5.06;100.00;102368.63;4993308;28;20036;-52
2023/10/16 00:53:14;;;;;;;;;;;;;;;5.14;100.00;102374.53;4993366;28;20022;-53
2023/10/16 00:55:39;;;;;;;10.05;6.22;;;;;;;5.06;100.00;102366.84;4996327;28;19960;-52
2023/10/16 00:58:06;;;;;;;9.57;6.00;;;;;;;5.06;100.00;102358.94;4997270;28;20026;-49
2023/10/16 01:00:45;;;;;;;10.88;6.05;;;;;;;5.05;100.00;102369.56;4993985;28;20052;-50
2023/10/16 01:03:11;;;;;;;10.30;5.70;;;;;;;5.03;100.00;102360.81;4996791;28;20083;-50
2023/10/16 01:05:41;;;;;;;7.45;5.80;;;;;;;5.05;100.00;102364.28;4998551;28;20018;-50
2023/10/16 01:08:10;;;;;;;7.47;5.72;;;;;;;5.02;100.00;102359.97;4996181;28;20496;-51
2023/10/16 01:10:40;;;;;;;8.95;6.13;;;;;;;5.03;100.00;102363.44;4995382;28;20040;-52
2023/10/16 01:13:09;;;;;;;12.15;7.00;;;;;;;5.03;100.00;102360.81;5004649;28;20718;-52
2023/10/16 01:15:35;;;;;;;8.45;6.95;;;;;;;5.03;100.00;102360.81;4998470;28;20038;-50
2023/10/16 01:18:00;;;;;;;8.13;6.05;;;;;;;5.00;100.00;102354.75;5003980;28;20025;-51
2023/10/16 01:20:26;;;;;;;8.75;6.65;;;;;;;5.00;100.00;102343.34;4996274;28;20034;-49
2023/10/16 01:22:52;;;;;;;10.88;6.63;;;;;;;5.00;100.00;102346.00;5002853;28;20030;-52
2023/10/16 01:25:18;;;;;;;9.15;6.32;;;;;;;5.01;100.00;102352.97;4998803;28;20026;-52
2023/10/16 01:27:44;;;;;;;10.15;6.68;;;;;;;5.02;100.00;102345.94;5013083;28;20390;-49
2023/10/16 01:30:09;;;;;;;12.20;6.78;;;;;;;5.00;100.00;102346.84;4995761;28;20022;-51
2023/10/16 01:32:35;;;;;;;9.02;6.97;;;;;;;5.00;100.00;102344.22;4997596;28;20027;-50
2023/10/16 01:35:01;;;;;;;10.60;6.78;;;;;;;5.00;100.00;102344.22;5001200;28;20026;-53
2023/10/16 01:37:27;;;;;;;9.48;6.88;;;;;;;5.02;100.00;102346.81;5000245;28;20435;-51
2023/10/16 01:39:56;;;;;;;9.13;6.43;;;;;;;5.03;100.00;102345.03;5001309;28;20026;-52
2023/10/16 01:42:22;;;;;;;16.92;7.18;;;;;;;5.05;100.00;102338.81;4999360;28;20030;-50
2023/10/16 01:44:51;;;;;;;8.05;6.72;;;;;;;5.07;100.00;102337.00;4998415;28;20030;-51
2023/10/16 01:47:17;;;;;;;11.68;7.15;;;;;;;5.10;100.00;102342.16;5005978;28;20037;-50
2023/10/16 01:49:43;;;;;;;9.32;6.82;;;;;;;5.12;100.00;102342.13;5000154;28;20027;-52
2023/10/16 01:52:12;;;;;;;10.05;7.35;;;;;;;5.13;100.00;102341.19;5002608;28;20034;-51
2023/10/16 01:54:39;;;;;;;13.90;7.38;;;;;;;5.15;100.00;102344.69;5002742;28;20148;-53
2023/10/16 01:57:12;;;;;;;10.30;7.07;;;;;;;5.13;100.00;102334.19;5002031;28;20056;-49
2023/10/16 01:59:44;;;;;;;8.48;7.00;;;;;;;5.15;100.00;102334.13;4996932;28;20059;-51
2023/10/16 02:02:11;;;;;;;12.95;7.55;;;;;;;5.16;100.00;102338.47;5005735;28;20495;-49
2023/10/16 02:04:38;;;;;;;9.77;7.05;;;;;;;5.18;100.00;102336.69;5002432;28;20173;-52
2023/10/16 02:07:04;;;;;;;11.10;7.90;;;;;;;5.18;100.00;102334.06;5000514;28;20057;-51
2023/10/16 02:09:31;;;;;;;10.32;7.13;;;;;;;5.14;100.00;102338.53;4996967;28;20050;-50
2023/10/16 02:11:59;;;;;;;9.15;6.75;;;;;;;5.11;100.00;102330.75;4998412;28;20030;-49
2023/10/16 02:14:26;;;;;;;9.15;6.75;;;;;;;5.12;100.00;102328.97;4998455;28;20056;-51
2023/10/16 02:16:51;;;;;;;10.80;7.13;;;;;;;5.10;100.00;102322.88;5001919;28;20472;-52
2023/10/16 02:19:17;;;;;;;12.07;7.20;;;;;;;5.08;100.00;102332.56;4997667;28;20032;-51
2023/10/16 02:21:42;;;;;;;9.18;6.78;;;;;;;5.07;100.00;102322.97;4999260;28;20022;-52
2023/10/16 02:24:08;;;;;;;8.80;7.15;;;;;;;5.05;100.00;102316.91;5001196;28;20065;-51
2023/10/16 02:26:44;;;;;;;11.07;7.18;;;;;;;5.06;100.00;102321.22;4996641;28;20022;-50
2023/10/16 02:29:12;;;;;;;12.73;6.90;;;;;;;5.04;100.00;102317.78;4998906;28;20030;-50
2023/10/16 02:31:39;;;;;;;10.15;7.18;;;;;;;5.03;100.00;102318.69;5006677;28;20019;-52
2023/10/16 02:34:12;;;;;;;9.98;7.15;;;;;;;5.03;100.00;102316.06;4999315;28;20464;-52
2023/10/16 02:36:37;;;;;;;9.60;7.47;;;;;;;5.00;100.00;102317.88;4999407;28;20030;-52
2023/10/16 02:39:07;;;;;;;8.80;7.53;;;;;;;4.97;100.00;102320.59;4998247;28;20037;-51
2023/10/16 02:41:33;;;;;;;9.57;7.68;;;;;;;4.95;100.00;102317.16;5003492;28;20387;-52
2023/10/16 02:43:58;;;;;;;11.80;7.68;;;;;;;4.93;100.00;102313.72;5001425;28;20037;-52
2023/10/16 02:46:23;;;;;;;12.80;7.75;;;;;;;4.93;100.00;102316.34;5001164;28;20069;-51
2023/10/16 02:48:52;;;;;;;9.07;7.32;;;;;;;4.91;100.00;102315.53;5000057;28;20531;-50
2023/10/16 02:51:18;;;;;;;9.20;7.47;;;;;;;4.90;100.00;102311.16;5001152;28;20033;-50
2023/10/16 02:53:43;;;;;;;10.25;6.93;;;;;;;4.89;100.00;102309.41;4998169;28;20030;-50
2023/10/16 02:56:14;;;;;;;12.20;8.50;;;;;;;4.86;100.00;102304.25;5006973;28;20034;-52
2023/10/16 02:58:43;;;;;;;9.77;7.00;;;;;;;4.82;100.00;102310.53;5006677;28;20499;-52
2023/10/16 03:01:19;;;;;;;12.43;7.78;;;;;;;4.82;100.00;102313.16;5002377;28;20030;-52
2023/10/16 03:03:50;;;;;;;13.35;7.63;;;;;;;4.79;100.00;102311.44;4995729;28;20061;-51
2023/10/16 03:06:17;;;;;;;11.02;7.05;;;;;;;4.79;100.00;102321.13;4998113;28;20029;-53
2023/10/16 03:08:49;;;;;;;9.85;7.97;;;;;;;4.79;100.00;102310.59;5006571;28;20042;-52
2023/10/16 03:11:15;;;;;;;10.70;7.35;;;;;;;4.77;100.00;102308.00;5002200;28;20033;-53
2023/10/16 03:13:43;;;;;;;10.32;7.50;;;;;;;4.77;100.00;102313.28;5025382;28;20030;-50
2023/10/16 03:16:15;;;;;;;12.10;7.68;;;;;;;4.78;100.00;102308.88;4996674;28;20022;-52
2023/10/16 03:18:43;;;;;;;9.90;7.38;;;;;;;4.75;100.00;102314.25;4996785;28;20109;-51
2023/10/16 03:21:27;;;;;;;10.90;7.57;;;;;;;4.75;100.00;102308.97;5009452;28;20027;-53
2023/10/16 03:23:52;;;;;;;11.57;7.57;;;;;;;4.72;100.00;102304.66;5011383;28;20155;-51
2023/10/16 03:26:27;;;;;;;10.48;7.28;;;;;;;4.71;100.00;102309.97;5002878;28;20030;-52
2023/10/16 03:28:54;;;;;;;11.45;7.63;;;;;;;4.69;100.00;102304.72;4994807;28;20059;-50
2023/10/16 03:31:20;;;;;;;10.15;7.45;;;;;;;4.67;100.00;102311.81;4999755;28;20038;-51
2023/10/16 03:33:46;;;;;;;10.55;7.78;;;;;;;4.66;100.00;102303.97;4996429;28;20030;-52
2023/10/16 03:36:12;;;;;;;10.30;7.85;;;;;;;4.63;100.00;102308.41;4997765;28;20027;-52
2023/10/16 03:38:38;;;;;;;8.43;7.03;;;;;;;4.62;100.00;102301.41;4999368;28;20022;-52
2023/10/16 03:41:13;;;;;;;9.73;6.97;;;;;;;4.59;100.00;102305.91;5000406;28;20042;-52
2023/10/16 03:43:42;;;;;;;11.43;7.78;;;;;;;4.56;100.00;102304.25;4999548;28;20174;-51
2023/10/16 03:46:08;;;;;;;;;;;;;;;4.65;100.00;102300.47;5004470;28;20046;-52
2023/10/16 03:48:35;;;;;;;10.30;7.47;;;;;;;4.51;100.00;102306.09;5001510;28;19917;-51
2023/10/16 03:51:02;;;;;;;11.50;7.57;;;;;;;4.47;100.00;102301.00;4998439;28;20083;-53
2023/10/16 03:53:32;;;;;;;9.98;7.25;;;;;;;4.43;100.00;102305.47;4995863;28;20018;-53
2023/10/16 03:55:58;;;;;;;10.63;7.47;;;;;;;4.41;100.00;102308.16;4997637;28;20433;-53
2023/10/16 03:58:26;;;;;;;12.57;8.00;;;;;;;4.39;100.00;102301.19;4997028;28;20049;-51
2023/10/16 04:00:56;;;;;;;9.68;7.85;;;;;;;4.38;100.00;102302.97;4999837;28;20029;-52
2023/10/16 04:03:23;;;;;;;11.60;8.63;;;;;;;4.37;100.00;102300.38;5000596;28;20030;-51
2023/10/16 04:05:49;;;;;;;10.68;8.07;;;;;;;4.34;100.00;102300.47;4998630;28;20025;-51
2023/10/16 04:08:18;;;;;;;10.05;7.60;;;;;;;4.30;100.00;102301.44;4992946;28;20058;-50
2023/10/16 04:10:47;;;;;;;8.90;7.78;;;;;;;4.29;100.00;102305.84;4997939;28;20108;-51
2023/10/16 04:13:16;;;;;;;8.88;7.53;;;;;;;4.30;100.00;102298.78;4997599;28;20022;-52
2023/10/16 04:18:27;;;;;;;8.02;7.22;;;;;;;4.23;100.00;102296.34;4999809;28;20053;-53
2023/10/16 04:26:32;;;;;;;8.50;7.35;;;;;;;4.17;100.00;102286.00;4997960;28;20092;-49
2023/10/16 04:31:45;;;;;;;9.33;7.07;;;;;;;4.16;100.00;102280.75;4996925;28;20626;-50
2023/10/16 04:34:24;;;;;;;12.80;7.80;;;;;;;4.15;100.00;102279.91;4996239;28;20277;-49
2023/10/16 04:36:52;;;;;;;;;;;;;;;4.22;100.00;102278.84;4999446;28;20488;-51
2023/10/16 04:45:00;;;;;;;9.48;7.68;;;;;;;4.05;100.00;102275.81;5002178;28;20506;-48
2023/10/16 04:47:28;;;;;;;11.40;8.40;;;;;;;4.01;100.00;102266.25;4997707;28;20031;-49
2023/10/16 04:51:09;;;;;;;13.75;7.82;;;;;;;3.99;100.00;102271.56;5003184;28;20073;-49
2023/10/16 05:17:58;;;;;;;11.55;8.10;;;;;;;3.97;100.00;102262.84;5011233;28;20041;-49
2023/10/16 06:15:01;;;;;;;13.35;9.88;;;;;;;4.33;100.00;102254.00;4995038;28;20118;-50
2023/10/16 06:17:26;;;;;;;11.18;9.02;;;;;;;4.35;100.00;102254.84;5003382;28;20427;-50
2023/10/16 06:19:52;;;;;;;12.45;9.82;;;;;;;4.37;100.00;102263.56;4999435;28;20027;-50
2023/10/16 06:22:17;;;;;;;14.93;9.50;;;;;;;4.39;100.00;102253.84;5002996;28;20030;-51
2023/10/16 06:24:47;;;;;;;13.40;9.35;;;;;;;4.41;100.00;102254.66;4998381;28;20167;-50
2023/10/16 06:27:18;;;;;;;13.10;9.52;;;;;;;4.41;100.00;102250.28;4996027;28;20029;-51
2023/10/16 06:29:50;;;;;;;12.05;8.63;;;;;;;4.41;100.00;102254.66;4992076;28;20476;-50
2023/10/16 06:32:25;;;;;;;9.93;8.65;;;;;;;4.42;100.00;102254.63;4993200;28;20053;-50
2023/10/16 06:34:57;;;;;;;12.05;9.10;;;;;;;4.43;100.00;102258.13;5002683;28;20034;-52
2023/10/16 06:37:24;;;;;;;12.38;8.93;;;;;;;4.45;100.00;102258.94;4998588;28;20095;-50
2023/10/16 06:39:58;;;;;;;17.42;9.90;;;;;;;4.46;100.00;102255.38;4999604;28;20484;-53
2023/10/16 06:42:24;;;;;;;11.55;9.27;;;;;;;4.45;100.00;102257.16;4992991;28;20494;-50
2023/10/16 06:44:53;;;;;;;13.38;9.23;;;;;;;4.45;100.00;102249.28;4995861;28;20022;-52
2023/10/16 06:47:23;;;;;;;14.43;9.48;;;;;;;4.48;100.00;102250.97;4995527;28;20069;-50
2023/10/16 06:49:50;;;;;;;12.43;9.00;;;;;;;4.48;100.00;102256.22;5006132;28;20034;-52
2023/10/16 06:52:17;;;;;;;11.05;9.20;;;;;;;4.52;100.00;102255.22;4993333;28;20080;-52
2023/10/16 06:54:43;;;;;;;12.10;9.48;;;;;;;4.55;100.00;102255.13;4996781;28;20026;-50
2023/10/16 06:57:11;;;;;;;11.38;9.23;;;;;;;4.59;100.00;102255.91;4993258;28;20073;-49
2023/10/16 06:59:38;;;;;;;13.50;9.63;;;;;;;4.61;100.00;102262.88;4992692;28;20044;-50
2023/10/16 07:02:04;;;;;;;12.73;9.75;;;;;;;4.64;100.00;102265.38;4994357;28;20033;-50
2023/10/16 07:04:29;;;;;;;14.52;9.55;;;;;;;4.68;100.00;102267.94;4992171;28;20041;-51
2023/10/16 07:06:57;;;;;;;16.30;10.50;;;;;;;4.68;100.00;102266.19;4999058;28;20022;-54
2023/10/16 07:09:36;;;;;;;13.95;9.57;;;;;;;4.72;100.00;102277.47;4998459;28;20113;-52
2023/10/16 07:12:03;;;;;;;12.75;9.43;;;;;;;4.76;100.00;102266.81;4995745;28;20042;-51
2023/10/16 07:14:29;;;;;;;13.63;9.13;;;;;;;4.78;100.00;102269.38;4995032;28;20179;-52
2023/10/16 07:16:54;;;;;;;11.20;9.40;;;;;;;4.82;100.00;102263.13;4994064;28;20436;-54
2023/10/16 07:19:19;;;;;;;12.45;9.38;;;;;;;4.83;100.00;102267.50;4993177;28;20391;-53
2023/10/16 07:21:48;;;;;;;12.43;9.65;;;;;;;4.84;100.00;102269.22;4993089;28;20034;-54
2023/10/16 07:24:16;;;;;;;13.80;9.45;;;;;;;4.88;100.00;102270.84;4996926;28;20550;-51
2023/10/16 07:26:47;;;;;;;11.35;9.30;;;;;;;4.89;100.00;102272.56;4994375;28;20113;-52
2023/10/16 07:29:12;;;;;;;15.30;10.38;;;;;;;4.92;100.00;102269.00;4995558;28;20480;-54
2023/10/16 07:31:38;;;;;;;13.10;10.43;;;;;;;4.96;100.00;102275.88;4998890;28;20026;-51
2023/10/16 07:34:04;;;;;;;14.77;10.98;;;;;;;4.98;100.00;102274.09;4990602;28;20030;-51
2023/10/16 07:36:30;;;;;;;10.77;9.50;;;;;;;5.01;100.00;102273.97;4996254;28;20034;-53
2023/10/16 07:38:56;;;;;;;16.40;10.75;;;;;;;5.07;100.00;102265.03;4999138;28;20030;-51
2023/10/16 07:41:23;;;;;;;13.98;11.13;;;;;;;5.13;100.00;102264.81;4996913;28;20433;-51
2023/10/16 07:43:49;;;;;;;15.85;11.73;;;;;;;5.19;100.00;102259.38;5000207;28;20336;-52
2023/10/16 07:46:27;;;;;;;16.08;11.55;;;;;;;5.27;100.00;102262.63;4995051;28;20058;-53
2023/10/16 07:48:53;;;;;;;17.67;12.00;;;;;;;5.35;100.00;102257.13;4998352;28;20079;-52
2023/10/16 07:51:21;;;;;;;15.40;12.02;;;;;;;5.43;100.00;102259.50;4997993;28;20072;-54
2023/10/16 07:53:50;;;;;;;17.33;11.77;;;;;;;5.51;100.00;102257.47;4998802;28;20052;-53
2023/10/16 07:58:54;;;;;;;13.80;12.02;;;;;;;5.67;100.00;102250.78;4996223;28;20113;-54
2023/10/16 08:01:36;;;;;;;14.02;11.32;;;;;;;5.75;100.00;102258.47;4980426;28;20022;-54
2023/10/16 08:04:02;;;;;;;15.02;11.30;;;;;;;5.83;100.00;102256.44;4997689;28;20038;-53
2023/10/16 08:06:28;;;;;;;14.10;11.23;;;;;;;5.93;100.00;102259.63;4992771;28;20495;-51
2023/10/16 08:11:53;;;;;;;16.90;11.05;;;;;;;6.07;100.00;102262.66;4993393;28;20092;-53
2023/10/16 08:14:18;;;;;;;12.57;10.65;;;;;;;6.14;100.00;102263.28;4998085;28;20100;-54
2023/10/16 08:16:43;;;;;;;14.63;11.13;;;;;;;6.23;100.00;102256.84;4996116;28;20054;-54
2023/10/16 08:19:15;;;;;;;13.95;11.10;;;;;;;6.34;100.00;102253.81;4994320;28;20058;-54
2023/10/16 08:21:43;;;;;;;17.15;10.98;;;;;;;6.41;100.00;102258.81;4994880;28;20028;-53
2023/10/16 08:24:13;;;;;;;17.05;11.02;;;;;;;6.51;100.00;102263.75;4997060;28;20029;-54
2023/10/16 08:26:42;;;;;;;12.40;11.20;;;;;;;6.58;100.00;102252.94;4995279;28;20034;-50
2023/10/16 08:29:11;;;;;;;13.15;10.85;;;;;;;6.66;100.00;102260.53;4999080;28;20018;-52
2023/10/16 08:31:41;;;;;;;13.30;10.13;;;;;;;6.74;100.00;102257.63;4995516;28;20119;-50
2023/10/16 08:34:11;;;;;;;11.50;10.27;;;;;;;6.80;100.00;102257.41;4994932;28;20048;-50
2023/10/16 08:36:37;;;;;;;14.95;11.00;;;;;;;6.91;100.00;102262.25;4999117;28;20065;-53
2023/10/16 08:39:09;;;;;;;12.90;10.65;;;;;;;7.03;100.00;102251.22;4995706;28;20107;-51
2023/10/16 08:42:36;;;;;;;12.10;10.90;;;;;;;7.14;100.00;102242.88;4996128;28;20048;-53
2023/10/16 08:44:29;;;;;;;11.77;10.32;;;;;;;7.27;100.00;102248.53;5000535;28;20701;-54
2023/10/16 08:49:24;;;;;;;12.23;9.55;;;;;;;7.52;100.00;102249.25;4994531;28;20455;-54
2023/10/16 08:51:54;;;;;;;13.55;10.43;;;;;;;7.64;100.00;102255.81;4995494;28;20113;-51
2023/10/16 08:57:20;;;;;;;12.02;8.68;;;;;;;7.81;100.00;102252.47;4963057;28;20385;-51
2023/10/16 08:59:49;;;;;;;13.60;9.10;;;;;;;7.94;100.00;102263.38;5000111;28;20026;-51
2023/10/16 09:02:17;;;;;;;14.45;9.23;;;;;;;8.07;100.00;102258.41;4989896;28;20158;-51
2023/10/16 09:04:43;;;;;;;13.30;9.57;;;;;;;8.22;100.00;102262.19;4992483;28;20038;-50
2023/10/16 09:07:12;;;;;;;11.38;8.35;;;;;;;8.33;100.00;102260.78;4989882;28;20411;-51
2023/10/16 09:09:41;;;;;;;14.55;8.40;;;;;;;8.54;100.00;102260.78;4986484;28;20146;-50
2023/10/16 09:12:10;;;;;;;14.80;8.63;;;;;;;8.73;100.00;102268.75;4994367;28;20452;-50
2023/10/16 09:14:40;;;;;;;14.77;8.02;;;;;;;8.94;100.00;102260.72;4996275;28;20041;-50
2023/10/16 09:17:06;;;;;;;10.00;6.75;;;;;;;9.18;100.00;102258.72;4993057;28;20022;-50
2023/10/16 09:19:35;;;;;;;12.18;7.50;;;;;;;9.30;100.00;102252.81;4992972;28;20121;-50
2023/10/16 09:22:04;;;;;;;13.80;7.05;;;;;;;9.50;100.00;102253.63;4993874;28;20030;-52
2023/10/16 09:24:33;;;;;;;11.02;7.28;;;;;;;9.70;100.00;102258.78;4994258;28;20029;-50
2023/10/16 09:26:59;;;;;;;8.55;6.60;;;;;;;9.78;100.00;102253.13;4994515;28;20026;-52
2023/10/16 09:29:26;;;;;;;6.43;5.82;;;;;;;9.97;100.00;102255.66;4994199;28;20471;-51
2023/10/16 09:31:52;;;;;;;9.98;5.85;;;;;;;10.17;100.00;102251.97;5004358;28;20064;-52
2023/10/16 09:34:25;;;;;;;6.40;4.63;;;;;;;10.36;100.00;102258.09;4995789;28;20114;-50
2023/10/16 09:39:53;;;;;;;5.28;4.28;;;;;;;10.76;100.00;102259.53;5062876;28;20082;-54
2023/10/16 09:42:25;;;;;;;5.65;4.40;;;;;;;10.90;100.00;102255.16;5014293;28;20409;-49
2023/10/16 09:45:06;;;;;;;9.95;4.53;;;;;;;11.16;100.00;102255.53;4998974;28;20061;-52
2023/10/16 09:47:35;;;;;;;11.13;4.50;;;;;;;11.32;100.00;102254.63;4998029;28;20033;-50
2023/10/16 09:50:16;;;;;;;6.33;4.63;;;;;;;11.59;100.00;102257.50;4998491;28;20062;-51
2023/10/16 09:52:45;;;;;;;6.93;4.68;;;;;;;11.84;98.42;102251.63;4998965;28;20297;-51
2023/10/16 09:55:12;;;;;;;6.35;4.00;;;;;;;12.04;94.68;102261.09;4998443;28;20504;-51
2023/10/16 09:57:44;;;;;;;6.95;3.35;;;;;;;12.14;93.12;102261.38;4998641;28;20026;-52
2023/10/16 10:00:28;;;;;;;7.05;3.72;;;;;;;12.32;93.41;102257.63;4997679;28;20354;-54
2023/10/16 10:03:06;;;;;;;7.47;4.22;;;;;;;12.45;93.16;102252.38;4993315;28;20031;-52
2023/10/16 10:05:41;;;;;;;8.20;4.18;;;;;;;12.65;91.94;102252.94;5003952;28;20035;-51
2023/10/16 10:08:18;;;;;;;6.90;4.10;;;;;;;12.83;90.63;102246.44;4997146;28;20111;-51
2023/10/16 10:13:36;;;;;;;7.60;3.55;;;;;;;13.18;84.86;102250.47;5000156;28;20388;-52
2023/10/16 10:16:12;;;;;;;5.00;2.65;;;;;;;13.30;84.56;102245.16;4994638;28;20037;-52
2023/10/16 10:18:45;;;;;;;5.90;3.00;;;;;;;13.47;88.88;102244.09;5002870;28;20041;-51
2023/10/16 10:21:18;;;;;;;3.38;2.33;;;;;;;13.56;86.10;102252.47;5001090;28;20061;-51
2023/10/16 10:23:46;;;;;;;6.22;2.72;;;;;;;13.63;80.41;102254.59;5000005;28;20306;-54
2023/10/16 10:26:16;;;;;;;7.57;2.67;;;;;;;13.71;79.82;102248.75;4996765;28;20031;-50
2023/10/16 10:28:45;;;;;;;5.88;2.50;;;;;;;14.00;79.97;102246.75;4999084;28;20057;-54
2023/10/16 10:31:15;;;;;;;4.50;2.10;;;;;;;14.01;76.78;102252.97;4997340;28;20029;-52
2023/10/16 10:33:42;;;;;;;3.78;1.80;;;;;;;14.12;75.94;102246.88;4994975;28;20061;-53
2023/10/16 10:36:39;;;;;;;5.13;2.28;;;;;;;14.33;83.00;102239.19;4992356;28;20037;-54
2023/10/16 10:39:23;;;;;;;3.08;2.55;;;;;;;14.42;80.07;102241.19;4982463;28;20042;-55
2023/10/16 10:42:10;;;;;;;4.90;1.98;;;;;;;14.54;72.85;102248.34;4995328;28;20035;-55
2023/10/16 10:44:42;;;;;;;3.70;1.20;;;;;;;14.56;69.46;102237.56;4993442;28;20496;-54
2023/10/16 10:47:18;;;;;;;1.70;1.20;;;;;;;14.63;75.06;102246.88;4996598;28;20512;-53
2023/10/16 10:49:44;;;;;;;3.17;1.15;;;;;;;14.67;73.14;102237.69;4996848;28;20045;-54
2023/10/16 10:52:12;;;;;;;6.40;1.80;;;;;;;14.72;75.09;102237.31;4998746;28;20034;-51
2023/10/16 10:54:43;;;;;;;5.10;1.80;;;;;;;14.79;72.50;102233.25;4996539;28;20506;-53
2023/10/16 10:57:17;;;;;;;2.92;1.20;;;;;;;14.80;68.52;102234.94;4996041;28;20080;-52
2023/10/16 10:59:47;;;;;;;2.58;1.25;;;;;;;14.86;67.46;102229.16;4998758;28;20036;-51
2023/10/16 11:04:46;;;;;;;2.63;1.40;;;;;;;14.94;69.82;102228.63;5004258;28;20049;-53
2023/10/16 11:07:23;;;;;;;3.75;1.50;;;;;;;14.99;70.78;102229.13;4999090;28;20088;-51
2023/10/16 11:09:51;;;;;;;4.57;1.80;;;;;;;15.01;67.84;102226.34;4992730;28;20031;-54
2023/10/16 11:12:17;;;;;;;6.05;1.92;;;;;;;15.01;69.03;102216.50;4999585;28;20424;-53
2023/10/16 11:14:42;;;;;;;3.65;1.70;;;;;;;15.18;69.58;102221.44;4993450;28;20163;-53
2023/10/16 11:17:07;;;;;;;4.05;1.95;;;;;;;15.28;69.31;102216.25;4997533;28;20037;-50
2023/10/16 11:19:49;;;;;;;5.47;1.98;;;;;;;15.33;72.26;102208.72;5001611;28;20030;-53
2023/10/16 11:22:21;;;;;;;3.00;2.10;;;;;;;15.44;71.14;102215.97;4997990;28;20026;-52
2023/10/16 11:24:47;;;;;;;3.60;2.00;;;;;;;15.31;67.44;102212.50;4996183;28;20118;-54
2023/10/16 11:27:13;;;;;;;4.47;2.00;;;;;;;15.39;69.91;102209.22;4997710;28;20033;-51
2023/10/16 11:29:40;;;;;;;2.78;1.95;;;;;;;15.36;68.39;102200.47;4999210;28;20030;-53
2023/10/16 11:32:06;;;;;;;4.03;1.85;;;;;;;15.38;67.60;102203.03;4990479;28;20480;-53
2023/10/16 11:34:45;;;;;;;5.68;2.05;;;;;;;15.43;70.08;102200.88;4999388;28;20026;-51
2023/10/16 11:37:12;;;;;;;;;;;;;;;15.61;75.04;102195.94;4994073;28;20592;-54
2023/10/16 11:39:38;;;;;;;6.88;1.80;;;;;;;15.44;67.13;102199.06;4999264;28;20271;-54
2023/10/16 11:42:04;;;;;;;4.05;2.15;;;;;;;15.38;65.68;102188.81;4991435;28;20022;-51
2023/10/16 11:44:32;;;;;;;5.15;2.00;;;;;;;15.37;68.42;102182.59;4997811;28;20030;-54
2023/10/16 11:47:01;;;;;;;2.47;1.70;;;;;;;15.41;69.13;102188.56;4999979;28;20683;-52
2023/10/16 11:49:31;;;;;;;2.65;1.30;;;;;;;15.38;64.73;102186.13;4994972;28;20046;-53
2023/10/16 11:52:08;;;;;;;3.08;1.70;;;;;;;15.31;63.09;102185.72;4995448;28;20032;-50
2023/10/16 11:54:36;;;;;;;2.20;1.65;;;;;;;15.30;62.36;102187.53;4997331;28;20568;-51
2023/10/16 11:57:01;;;;;;;2.92;1.42;;;;;;;15.29;64.99;102179.66;4995359;28;20481;-51
2023/10/16 11:59:28;;;;;;;2.97;1.40;;;;;;;15.34;66.59;102174.81;4998239;28;20041;-54
2023/10/16 12:02:11;;;;;;;2.35;1.48;;;;;;;15.30;67.33;102168.81;4995300;28;20030;-50
2023/10/16 12:04:37;;;;;;;4.85;1.55;;;;;;;15.24;65.57;102171.97;4996815;28;20045;-52
2023/10/16 12:07:02;;;;;;;4.35;1.50;;;;;;;15.17;64.83;102171.56;4998195;28;20018;-52
2023/10/16 12:09:36;;;;;;;3.38;1.70;;;;;;;15.12;66.01;102162.16;5000235;28;20029;-51
2023/10/16 12:12:06;;;;;;;3.63;1.73;;;;;;;15.00;68.81;102158.59;4994215;28;20117;-50
2023/10/16 12:14:37;;;;;;;3.03;1.70;;;;;;;14.94;70.18;102161.72;4993667;28;20034;-51
2023/10/16 12:17:06;;;;;;;2.60;1.70;;;;;;;14.87;67.75;102156.00;4998541;28;20454;-51
2023/10/16 12:19:33;;;;;;;4.10;1.70;;;;;;;14.84;66.36;102152.66;4993393;28;20026;-52
2023/10/16 12:22:00;;;;;;;2.15;1.58;;;;;;;14.80;64.97;102149.34;4993241;28;20038;-52
2023/10/16 12:24:26;;;;;;;2.25;1.25;;;;;;;14.73;64.56;102148.97;4992796;28;20030;-51
2023/10/16 12:26:52;;;;;;;4.05;1.90;;;;;;;14.64;66.92;102146.97;4992839;28;20032;-55
2023/10/16 12:29:17;;;;;;;6.45;1.70;;;;;;;14.72;69.19;102144.59;4996127;28;20030;-51
2023/10/16 12:31:43;;;;;;;2.65;1.70;;;;;;;14.68;66.48;102147.59;4998613;28;20027;-51
2023/10/16 12:34:11;;;;;;;2.47;1.60;;;;;;;14.59;64.99;102144.63;5003506;28;20041;-51
2023/10/16 12:36:38;;;;;;;5.45;1.67;;;;;;;14.58;64.22;102142.88;4997909;28;20079;-52
2023/10/16 12:39:13;;;;;;;12.50;2.35;;;;;;;14.50;65.00;102144.41;4997573;28;20031;-54
2023/10/16 12:41:40;;;;;;;4.22;1.40;;;;;;;14.46;65.43;102138.44;4991826;28;20117;-53
2023/10/16 12:44:08;;;;;;;1.83;1.20;;;;;;;14.46;66.48;102141.09;4998319;28;20034;-52
2023/10/16 12:46:38;;;;;;;4.00;1.55;;;;;;;14.39;64.29;102132.69;4994537;28;20041;-53
2023/10/16 12:49:07;;;;;;;3.35;1.50;;;;;;;14.34;66.24;102131.28;4996488;28;20113;-52
2023/10/16 12:51:34;;;;;;;;;;;;;;;14.54;71.00;102127.19;4993462;28;20026;-51
2023/10/16 12:54:03;;;;;;;3.83;1.67;;;;;;;14.35;67.49;102131.19;4999164;28;20375;-51
2023/10/16 12:56:28;;;;;;;3.85;1.60;;;;;;;14.33;68.05;102124.25;4994062;28;20030;-51
2023/10/16 12:58:54;;;;;;;4.78;1.70;;;;;;;14.24;68.98;102126.63;4994973;28;20485;-52
2023/10/16 13:01:21;;;;;;;4.90;1.90;;;;;;;14.31;70.45;102128.88;5000628;28;20395;-51
2023/10/16 13:03:46;;;;;;;3.70;1.60;;;;;;;14.29;70.97;102130.75;4997429;28;20022;-50
2023/10/16 13:06:12;;;;;;;4.60;2.00;;;;;;;14.24;66.71;102125.78;5001589;28;20032;-54
2023/10/16 13:08:37;;;;;;;3.42;1.70;;;;;;;14.20;64.56;102125.13;4999630;28;20037;-53
2023/10/16 13:11:03;;;;;;;2.75;1.70;;;;;;;14.16;66.92;102126.31;5006079;28;20026;-52
2023/10/16 13:13:28;;;;;;;4.30;1.70;;;;;;;14.09;67.68;102124.19;5002106;28;20114;-51
2023/10/16 13:15:54;;;;;;;9.88;2.15;;;;;;;14.12;67.83;102129.31;5000857;28;20039;-50
2023/10/16 13:18:27;;;;;;;6.70;2.38;;;;;;;14.15;68.63;102124.59;5000144;28;20030;-50
2023/10/16 13:20:57;;;;;;;4.95;1.75;;;;;;;14.07;67.02;102119.81;5000816;28;20433;-50
2023/10/16 13:23:26;;;;;;;5.40;1.80;;;;;;;14.00;67.08;102117.69;4996182;28;20097;-51
2023/10/16 13:25:56;;;;;;;4.05;1.77;;;;;;;13.97;68.50;102123.22;4999189;28;20052;-52